📊 John's Weather Station

Last reading: 2020-06-04 10:01:04

TEMPERATURE

--

Temperature 20 readings
Min Max Average
16.99 °C 17.50 °C 17.15 °C

HUMIDITY

--

Humidity 20 readings
Min Max Average
70.72 % 70.97 % 70.8 %

View Latest 20 Readings

ID Sensor Location Temp Humid Bar Timestamp
15014 BME280 Lounge 17.50 70.77 1002.19 2020-06-04 10:01:04
15013 BME280 Lounge 17.44 70.79 1002.12 2020-06-04 09:51:03
15012 BME280 Lounge 17.36 70.80 1002.18 2020-06-04 09:41:02
15011 BME280 Lounge 17.29 70.86 1002.31 2020-06-04 09:31:01
15010 BME280 Lounge 17.27 70.91 1002.12 2020-06-04 09:20:59
15009 BME280 Lounge 17.25 70.97 1002.07 2020-06-04 09:10:58
15008 BME280 Lounge 17.20 70.89 1002.12 2020-06-04 09:00:57
15007 BME280 Lounge 17.19 70.72 1002.01 2020-06-04 08:50:55
15006 BME280 Lounge 17.16 70.72 1002.00 2020-06-04 08:40:49
15005 BME280 Lounge 17.12 70.77 1001.70 2020-06-04 08:30:43
15004 BME280 Lounge 17.07 70.77 1001.60 2020-06-04 08:20:36
15003 BME280 Lounge 17.03 70.86 1001.55 2020-06-04 08:10:30
15002 BME280 Lounge 17.06 70.77 1001.27 2020-06-04 08:00:23
15001 BME280 Lounge 17.05 70.76 1001.06 2020-06-04 07:50:17
15000 BME280 Lounge 17.02 70.83 1000.98 2020-06-04 07:40:11
14999 BME280 Lounge 17.03 70.76 1000.88 2020-06-04 07:30:04
14998 BME280 Lounge 17.02 70.76 1000.66 2020-06-04 07:19:58
14997 BME280 Lounge 17.02 70.75 1000.45 2020-06-04 07:09:51
14996 BME280 Lounge 17.01 70.78 1000.32 2020-06-04 06:59:45
14995 BME280 Lounge 16.99 70.82 1000.20 2020-06-04 06:49:39